createdAt,value
2019-02-02T00:00:19.469Z,76.13
2019-02-02T00:00:53.273Z,64.33
2019-02-02T00:01:25.466Z,74.23
2019-02-02T00:01:56.670Z,71.20
2019-02-02T00:02:27.840Z,72.27
2019-02-02T00:02:59.228Z,75.73
2019-02-02T00:03:30.393Z,78.40
2019-02-02T00:04:01.593Z,79.07
2019-02-02T00:04:32.895Z,82.37
2019-02-02T00:05:05.765Z,92.83
2019-02-02T00:05:36.898Z,103.20
2019-02-02T00:06:09.121Z,96.43
2019-02-02T00:06:40.278Z,83.37
2019-02-02T00:07:11.466Z,82.07
2019-02-02T00:07:42.633Z,78.07
2019-02-02T00:08:13.832Z,79.03
2019-02-02T00:08:44.990Z,76.63
2019-02-02T00:09:16.200Z,79.73
2019-02-02T00:09:47.352Z,78.73
2019-02-02T00:10:18.535Z,76.20
2019-02-02T00:10:49.688Z,76.20
2019-02-02T00:11:20.892Z,65.87
2019-02-02T00:11:52.072Z,70.50
2019-02-02T00:12:23.271Z,70.37
2019-02-02T00:12:54.543Z,68.00
2019-02-02T00:13:25.759Z,74.47
2019-02-02T00:13:56.937Z,71.03
2019-02-02T00:14:28.135Z,64.87
2019-02-02T00:14:59.295Z,67.27
2019-02-02T00:15:30.488Z,68.77
2019-02-02T00:16:01.670Z,69.90
2019-02-02T00:16:33.034Z,70.33
2019-02-02T00:17:04.207Z,65.33
2019-02-02T00:17:35.375Z,67.27
2019-02-02T00:18:06.568Z,69.53
2019-02-02T00:18:37.760Z,67.27
2019-02-02T00:19:08.943Z,78.63
2019-02-02T00:19:40.115Z,71.83
2019-02-02T00:20:11.311Z,75.73
2019-02-02T00:20:42.480Z,73.93
2019-02-02T00:21:13.749Z,76.80
2019-02-02T00:21:44.927Z,67.47
2019-02-02T00:22:16.102Z,75.27
2019-02-02T00:22:47.282Z,74.60
2019-02-02T00:23:18.462Z,69.53
2019-02-02T00:23:49.648Z,80.20
2019-02-02T00:24:20.831Z,71.40
2019-02-02T00:24:52.116Z,77.87
2019-02-02T00:25:23.310Z,79.20
2019-02-02T00:25:54.487Z,75.33
2019-02-02T00:26:25.670Z,78.57
2019-02-02T00:26:56.896Z,75.67
2019-02-02T00:27:28.168Z,77.83
2019-02-02T00:27:59.393Z,72.73
2019-02-02T00:28:30.569Z,75.87
2019-02-02T00:29:01.751Z,68.30
2019-02-02T00:29:32.916Z,72.03
2019-02-02T00:30:14.872Z,65.80
2019-02-02T00:30:46.061Z,63.00
2019-02-02T00:31:17.265Z,64.13
2019-02-02T00:31:48.421Z,66.37
2019-02-02T00:32:19.619Z,61.07
2019-02-02T00:32:50.771Z,63.77
2019-02-02T00:33:21.984Z,65.07
2019-02-02T00:33:53.139Z,67.40
2019-02-02T00:34:25.339Z,66.70
2019-02-02T00:34:56.502Z,65.93
2019-02-02T00:35:27.702Z,64.80
2019-02-02T00:35:58.880Z,64.63
2019-02-02T00:36:30.073Z,71.57
2019-02-02T00:37:01.239Z,66.50
2019-02-02T00:37:32.490Z,64.07
2019-02-02T00:38:03.643Z,67.47
2019-02-02T00:38:34.858Z,66.40
2019-02-02T00:39:07.321Z,66.13
2019-02-02T00:39:38.514Z,71.47
2019-02-02T00:40:18.531Z,66.10
2019-02-02T00:40:49.767Z,68.27
2019-02-02T00:41:20.934Z,66.00
2019-02-02T00:41:52.347Z,70.37
2019-02-02T00:42:23.534Z,70.60
2019-02-02T00:42:54.746Z,82.83
2019-02-02T00:43:25.924Z,80.50
2019-02-02T00:43:57.115Z,73.87
2019-02-02T00:44:28.347Z,66.13
2019-02-02T00:44:59.563Z,64.30
2019-02-02T00:45:30.838Z,63.90
2019-02-02T00:46:02.016Z,62.77
2019-02-02T00:46:33.187Z,65.43
2019-02-02T00:47:04.476Z,63.13
2019-02-02T00:47:35.662Z,61.47
2019-02-02T00:48:06.856Z,60.27
2019-02-02T00:48:38.041Z,64.07
2019-02-02T00:49:09.223Z,63.80
2019-02-02T00:49:40.400Z,65.27
2019-02-02T00:50:13.537Z,62.93
2019-02-02T00:50:44.711Z,63.97
2019-02-02T00:51:15.879Z,66.93
2019-02-02T00:51:47.052Z,64.67
2019-02-02T00:52:18.230Z,63.47
2019-02-02T00:52:49.429Z,63.97
2019-02-02T00:53:20.613Z,61.40
2019-02-02T00:53:51.780Z,62.43
2019-02-02T00:54:22.956Z,66.27
2019-02-02T00:54:54.134Z,61.87
2019-02-02T00:55:25.316Z,65.47
2019-02-02T00:55:56.517Z,60.87
2019-02-02T00:56:27.755Z,56.40
2019-02-02T00:56:58.932Z,56.57
2019-02-02T00:57:30.130Z,66.07
2019-02-02T00:58:01.275Z,62.70
2019-02-02T00:58:32.477Z,60.80
2019-02-02T00:59:03.637Z,63.87
2019-02-02T00:59:34.848Z,62.53
2019-02-02T01:00:11.502Z,62.97
2019-02-02T01:00:42.753Z,59.90
2019-02-02T01:01:13.917Z,59.00
2019-02-02T01:01:45.121Z,59.10
2019-02-02T01:02:16.293Z,57.27
2019-02-02T01:02:47.485Z,59.73
2019-02-02T01:03:18.644Z,64.73
2019-02-02T01:03:49.839Z,62.27
2019-02-02T01:04:21.001Z,64.17
2019-02-02T01:04:52.235Z,64.13
2019-02-02T01:05:23.402Z,60.00
2019-02-02T01:05:54.587Z,61.70
2019-02-02T01:06:25.732Z,59.93
2019-02-02T01:06:56.955Z,58.23
2019-02-02T01:07:28.100Z,57.37
2019-02-02T01:07:59.402Z,55.80
2019-02-02T01:08:30.565Z,55.77
2019-02-02T01:09:03.672Z,59.53
2019-02-02T01:09:35.218Z,59.30
2019-02-02T01:10:12.026Z,61.37
2019-02-02T01:10:43.186Z,59.10
2019-02-02T01:11:14.386Z,62.73
2019-02-02T01:11:45.585Z,63.10
2019-02-02T01:12:16.752Z,63.57
2019-02-02T01:12:47.924Z,60.33
2019-02-02T01:13:19.099Z,62.87
2019-02-02T01:13:50.282Z,62.27
2019-02-02T01:14:21.468Z,62.67
2019-02-02T01:14:52.646Z,61.67
2019-02-02T01:15:23.844Z,60.90
2019-02-02T01:15:55.016Z,65.03
2019-02-02T01:16:26.283Z,61.10
2019-02-02T01:16:57.477Z,55.87
2019-02-02T01:17:28.699Z,60.20
2019-02-02T01:18:00.016Z,58.77
2019-02-02T01:18:31.159Z,61.17
2019-02-02T01:19:02.357Z,55.63
2019-02-02T01:19:33.519Z,53.60
2019-02-02T01:20:08.527Z,57.17
2019-02-02T01:20:39.692Z,51.70
2019-02-02T01:21:10.893Z,55.20
2019-02-02T01:21:42.065Z,58.50
2019-02-02T01:22:13.269Z,55.30
2019-02-02T01:22:44.431Z,53.37
2019-02-02T01:23:15.639Z,53.33
2019-02-02T01:23:46.804Z,55.70
2019-02-02T01:24:17.992Z,60.57
2019-02-02T01:24:49.189Z,57.47
2019-02-02T01:25:20.444Z,59.27
2019-02-02T01:25:51.610Z,58.37
2019-02-02T01:26:22.830Z,55.93
2019-02-02T01:26:54.020Z,57.70
2019-02-02T01:27:25.261Z,57.40
2019-02-02T01:28:04.931Z,57.23
2019-02-02T01:28:29.794Z,59.57
2019-02-02T01:29:01.055Z,59.87
2019-02-02T01:29:32.479Z,55.07
2019-02-02T01:30:09.128Z,59.37
2019-02-02T01:30:40.375Z,58.10
2019-02-02T01:31:11.758Z,61.37
2019-02-02T01:31:44.152Z,61.80
2019-02-02T01:32:15.358Z,60.90
2019-02-02T01:32:46.517Z,61.27
2019-02-02T01:33:17.735Z,64.10
2019-02-02T01:33:48.890Z,58.33
2019-02-02T01:34:20.098Z,58.73
2019-02-02T01:34:51.250Z,57.00
2019-02-02T01:35:22.449Z,60.37
2019-02-02T01:35:53.623Z,60.60
2019-02-02T01:36:24.830Z,57.33
2019-02-02T01:36:56.029Z,55.70
2019-02-02T01:37:27.289Z,53.77
2019-02-02T01:37:58.443Z,54.77
2019-02-02T01:38:29.773Z,53.10
2019-02-02T01:39:00.929Z,57.63
2019-02-02T01:39:32.340Z,56.30
2019-02-02T01:40:11.298Z,56.67
2019-02-02T01:40:42.498Z,53.73
2019-02-02T01:41:13.636Z,58.87
2019-02-02T01:41:44.853Z,57.47
2019-02-02T01:42:16.022Z,59.90
2019-02-02T01:42:47.254Z,59.03
2019-02-02T01:43:18.516Z,57.27
2019-02-02T01:43:49.738Z,59.70
2019-02-02T01:44:20.945Z,63.37
2019-02-02T01:44:52.172Z,64.83
2019-02-02T01:45:26.403Z,60.83
2019-02-02T01:45:57.642Z,61.97
2019-02-02T01:46:28.880Z,56.63
2019-02-02T01:47:00.109Z,58.50
2019-02-02T01:47:31.364Z,61.20
2019-02-02T01:48:02.529Z,59.73
2019-02-02T01:48:34.736Z,59.83
2019-02-02T01:49:05.885Z,58.83
2019-02-02T01:49:37.099Z,67.70
2019-02-02T01:50:12.657Z,55.67
2019-02-02T01:50:43.882Z,52.83
2019-02-02T01:51:15.045Z,55.80
2019-02-02T01:51:46.250Z,57.07
2019-02-02T01:52:17.525Z,52.07
2019-02-02T01:52:48.745Z,54.67
2019-02-02T01:53:19.983Z,54.60
2019-02-02T01:53:52.275Z,55.30
2019-02-02T01:54:23.491Z,57.63
2019-02-02T01:54:54.739Z,53.70
2019-02-02T01:55:25.992Z,54.37
2019-02-02T01:55:57.225Z,54.53
2019-02-02T01:56:28.480Z,53.33
2019-02-02T01:57:00.012Z,57.20
2019-02-02T01:57:31.218Z,51.87
2019-02-02T01:58:02.438Z,59.90
2019-02-02T01:58:33.644Z,61.57
2019-02-02T01:59:04.918Z,54.43
2019-02-02T01:59:36.212Z,58.97
2019-02-02T02:00:12.756Z,56.43
2019-02-02T02:00:43.964Z,58.90
2019-02-02T02:01:15.154Z,61.63
2019-02-02T02:01:46.366Z,57.53
2019-02-02T02:02:17.510Z,60.63
2019-02-02T02:02:48.723Z,53.53
2019-02-02T02:03:19.883Z,61.87
2019-02-02T02:03:52.097Z,63.10
2019-02-02T02:04:23.259Z,57.83
2019-02-02T02:04:54.445Z,58.60
2019-02-02T02:05:25.599Z,59.03
2019-02-02T02:05:56.773Z,62.17
2019-02-02T02:06:27.989Z,57.40
2019-02-02T02:06:59.352Z,51.70
2019-02-02T02:07:30.513Z,56.97
2019-02-02T02:08:01.683Z,57.30
2019-02-02T02:08:33.074Z,56.43
2019-02-02T02:09:04.848Z,51.77
2019-02-02T02:09:37.024Z,52.77
2019-02-02T02:10:17.116Z,55.70
2019-02-02T02:10:49.313Z,52.10
2019-02-02T02:11:20.482Z,60.10
2019-02-02T02:11:51.658Z,52.87
2019-02-02T02:12:22.838Z,53.30
2019-02-02T02:12:54.132Z,51.70
2019-02-02T02:13:25.345Z,53.20
2019-02-02T02:13:56.526Z,53.37
2019-02-02T02:14:27.725Z,53.57
2019-02-02T02:14:59.226Z,55.70
2019-02-02T02:15:30.386Z,51.10
2019-02-02T02:16:01.593Z,50.40
2019-02-02T02:16:33.615Z,53.67
2019-02-02T02:17:04.803Z,51.97
2019-02-02T02:17:36.002Z,57.43
2019-02-02T02:18:07.190Z,57.60
2019-02-02T02:18:38.562Z,57.97
2019-02-02T02:19:09.728Z,54.57
2019-02-02T02:19:40.933Z,58.07
2019-02-02T02:20:14.695Z,55.20
2019-02-02T02:20:45.923Z,57.63
2019-02-02T02:21:17.095Z,57.20
2019-02-02T02:21:48.289Z,60.13
2019-02-02T02:22:19.501Z,61.20
2019-02-02T02:22:50.707Z,59.03
2019-02-02T02:23:21.886Z,56.37
2019-02-02T02:23:53.097Z,57.97
2019-02-02T02:24:24.250Z,54.53
2019-02-02T02:24:55.463Z,54.07
2019-02-02T02:25:26.593Z,54.00
2019-02-02T02:25:57.812Z,55.53
2019-02-02T02:26:28.984Z,51.97
2019-02-02T02:27:00.252Z,55.53
2019-02-02T02:27:31.408Z,50.20
2019-02-02T02:28:02.603Z,55.07
2019-02-02T02:28:33.750Z,54.80
2019-02-02T02:29:04.953Z,50.07
2019-02-02T02:29:36.113Z,52.47
2019-02-02T02:30:12.201Z,53.13
2019-02-02T02:30:43.367Z,55.57
2019-02-02T02:31:14.620Z,52.90
2019-02-02T02:31:45.863Z,51.97
2019-02-02T02:32:17.110Z,52.17
2019-02-02T02:32:48.386Z,54.50
2019-02-02T02:33:20.561Z,53.53
2019-02-02T02:33:51.747Z,52.43
2019-02-02T02:34:22.945Z,55.33
2019-02-02T02:34:54.119Z,56.30
2019-02-02T02:35:25.301Z,56.70
2019-02-02T02:35:56.459Z,53.87
2019-02-02T02:36:27.811Z,53.67
2019-02-02T02:36:58.993Z,57.33
2019-02-02T02:37:30.197Z,59.37
2019-02-02T02:38:01.389Z,57.30
2019-02-02T02:38:32.538Z,57.57
2019-02-02T02:39:06.475Z,58.00
2019-02-02T02:39:37.648Z,58.77
2019-02-02T02:40:13.106Z,55.23
2019-02-02T02:40:44.260Z,56.23
2019-02-02T02:41:15.446Z,56.93
2019-02-02T02:41:46.598Z,59.93
2019-02-02T02:42:17.759Z,53.47
2019-02-02T02:42:49.020Z,52.43
2019-02-02T02:43:20.188Z,55.50
2019-02-02T02:43:51.345Z,55.50
2019-02-02T02:44:22.554Z,55.77
2019-02-02T02:44:53.722Z,60.63
2019-02-02T02:45:24.912Z,56.33
2019-02-02T02:45:56.070Z,55.13
2019-02-02T02:46:27.270Z,54.10
2019-02-02T02:46:58.414Z,56.43
2019-02-02T02:47:29.665Z,54.57
2019-02-02T02:48:00.874Z,59.03
2019-02-02T02:48:32.041Z,52.10
2019-02-02T02:49:03.323Z,51.17
2019-02-02T02:49:34.515Z,52.57
2019-02-02T02:50:09.998Z,54.33
2019-02-02T02:50:41.193Z,51.67
2019-02-02T02:51:12.554Z,53.03
2019-02-02T02:51:43.751Z,56.97
2019-02-02T02:52:14.939Z,54.20
2019-02-02T02:52:46.103Z,55.60
2019-02-02T02:53:17.293Z,55.83
2019-02-02T02:53:48.493Z,57.33
2019-02-02T02:54:19.661Z,56.00
2019-02-02T02:54:50.858Z,60.20
2019-02-02T02:55:22.019Z,57.93
2019-02-02T02:55:53.245Z,58.17
2019-02-02T02:56:24.426Z,59.33
2019-02-02T02:56:55.605Z,57.70
2019-02-02T02:57:27.794Z,61.83
2019-02-02T02:57:58.962Z,59.57
2019-02-02T02:58:40.755Z,57.07
2019-02-02T02:59:03.231Z,59.87
2019-02-02T02:59:34.408Z,65.93
2019-02-02T03:00:23.322Z,57.90
2019-02-02T03:00:54.490Z,54.20
2019-02-02T03:01:25.797Z,56.20
2019-02-02T03:01:57.046Z,58.43
2019-02-02T03:02:28.302Z,53.17
2019-02-02T03:02:59.786Z,58.33
2019-02-02T03:03:31.001Z,56.23
2019-02-02T03:04:02.325Z,55.40
2019-02-02T03:04:34.600Z,52.57
2019-02-02T03:05:09.740Z,57.43
2019-02-02T03:05:40.954Z,51.87
2019-02-02T03:06:12.139Z,50.67
2019-02-02T03:06:43.385Z,52.03
2019-02-02T03:07:14.554Z,49.67
2019-02-02T03:07:47.465Z,48.30
2019-02-02T03:08:18.641Z,54.73
2019-02-02T03:08:49.830Z,53.97
2019-02-02T03:09:20.999Z,55.13
2019-02-02T03:09:52.169Z,55.90
2019-02-02T03:10:24.651Z,56.23
2019-02-02T03:10:55.844Z,52.33
2019-02-02T03:11:27.115Z,55.40
2019-02-02T03:11:58.399Z,55.23
2019-02-02T03:12:29.763Z,55.00
2019-02-02T03:13:00.991Z,57.53
2019-02-02T03:13:32.308Z,55.77
2019-02-02T03:14:03.500Z,54.77
2019-02-02T03:14:34.682Z,58.40
2019-02-02T03:15:10.472Z,50.60
2019-02-02T03:15:41.732Z,59.13
2019-02-02T03:16:13.043Z,57.30
2019-02-02T03:16:44.262Z,53.97
2019-02-02T03:17:15.488Z,55.27
2019-02-02T03:17:48.214Z,54.97
2019-02-02T03:18:19.559Z,55.27
2019-02-02T03:18:51.837Z,54.20
2019-02-02T03:19:22.990Z,55.23
2019-02-02T03:19:54.184Z,56.53
2019-02-02T03:20:25.350Z,48.53
2019-02-02T03:20:56.612Z,53.47
2019-02-02T03:21:27.764Z,55.97
2019-02-02T03:21:59.217Z,58.43
2019-02-02T03:22:30.373Z,56.67
2019-02-02T03:23:01.567Z,65.07
2019-02-02T03:23:32.737Z,56.90
2019-02-02T03:24:04.059Z,52.60
2019-02-02T03:24:35.321Z,54.60
2019-02-02T03:25:16.148Z,51.10
2019-02-02T03:25:47.381Z,50.03
2019-02-02T03:26:18.631Z,50.90
2019-02-02T03:26:49.873Z,52.90
2019-02-02T03:27:21.109Z,53.17
2019-02-02T03:27:52.341Z,53.77
2019-02-02T03:28:23.572Z,50.90
2019-02-02T03:28:54.782Z,53.00
2019-02-02T03:29:25.937Z,49.57
2019-02-02T03:29:58.136Z,57.43
2019-02-02T03:30:29.360Z,54.40
2019-02-02T03:31:00.576Z,55.50
2019-02-02T03:31:31.775Z,54.97
2019-02-02T03:32:03.046Z,52.90
2019-02-02T03:32:34.202Z,57.67
2019-02-02T03:33:05.418Z,57.63
2019-02-02T03:33:36.601Z,53.80
2019-02-02T03:34:07.826Z,60.30
2019-02-02T03:34:39.060Z,55.43
2019-02-02T03:35:12.796Z,54.77
2019-02-02T03:35:45.008Z,53.17
2019-02-02T03:36:16.204Z,50.87
2019-02-02T03:36:47.535Z,53.23
2019-02-02T03:37:18.673Z,55.63
2019-02-02T03:37:50.479Z,52.93
2019-02-02T03:38:21.633Z,53.37
2019-02-02T03:38:53.879Z,50.40
2019-02-02T03:39:25.103Z,49.30
2019-02-02T03:39:56.325Z,50.07
2019-02-02T03:40:27.499Z,53.10
2019-02-02T03:40:58.888Z,51.13
2019-02-02T03:41:30.050Z,53.07
2019-02-02T03:42:01.272Z,53.07
2019-02-02T03:42:32.836Z,52.73
2019-02-02T03:43:04.027Z,53.23
2019-02-02T03:43:35.179Z,57.10
2019-02-02T03:44:06.369Z,55.50
2019-02-02T03:44:37.518Z,52.43
2019-02-02T03:45:12.805Z,52.60
2019-02-02T03:45:43.958Z,51.23
2019-02-02T03:46:15.168Z,52.67
2019-02-02T03:46:46.321Z,48.73
2019-02-02T03:47:17.529Z,49.97
2019-02-02T03:47:49.166Z,47.37
2019-02-02T03:48:20.375Z,49.13
2019-02-02T03:48:51.553Z,47.93
2019-02-02T03:49:22.743Z,55.83
2019-02-02T03:49:53.937Z,48.67
2019-02-02T03:50:25.188Z,54.50
2019-02-02T03:50:56.375Z,51.97
2019-02-02T03:51:27.554Z,49.60
2019-02-02T03:51:58.738Z,48.40
2019-02-02T03:52:29.935Z,54.27
2019-02-02T03:53:01.146Z,55.00
2019-02-02T03:53:32.432Z,58.40
2019-02-02T03:54:08.796Z,58.47
2019-02-02T03:54:36.695Z,54.73
2019-02-02T03:55:11.987Z,48.40
2019-02-02T03:55:44.162Z,52.93
2019-02-02T03:56:15.356Z,51.57
2019-02-02T03:56:46.575Z,52.80
2019-02-02T03:57:17.786Z,51.03
2019-02-02T03:57:48.978Z,55.33
2019-02-02T03:58:20.189Z,55.30
2019-02-02T03:58:51.908Z,48.10
2019-02-02T03:59:23.059Z,48.97
2019-02-02T03:59:54.245Z,53.87
2019-02-02T04:00:25.404Z,52.80
2019-02-02T04:00:56.623Z,48.67
2019-02-02T04:01:29.961Z,49.50
2019-02-02T04:02:00.874Z,48.77
2019-02-02T04:02:32.085Z,48.77
2019-02-02T04:03:03.280Z,50.23
2019-02-02T04:03:34.429Z,50.87
2019-02-02T04:04:05.624Z,49.73
2019-02-02T04:04:36.858Z,49.40
2019-02-02T04:05:12.282Z,48.50
2019-02-02T04:05:43.477Z,49.67
2019-02-02T04:06:14.748Z,49.63
2019-02-02T04:06:46.099Z,47.03
2019-02-02T04:07:17.310Z,48.73
2019-02-02T04:07:48.480Z,50.00
2019-02-02T04:08:19.687Z,49.27
2019-02-02T04:08:50.841Z,48.03
2019-02-02T04:09:22.045Z,48.77
2019-02-02T04:09:53.206Z,48.00
2019-02-02T04:10:24.423Z,51.70
2019-02-02T04:10:55.601Z,48.93
2019-02-02T04:11:26.877Z,53.00
2019-02-02T04:11:58.032Z,51.43
2019-02-02T04:12:29.373Z,49.50
2019-02-02T04:13:00.544Z,50.77
2019-02-02T04:13:32.762Z,48.97
2019-02-02T04:14:03.875Z,49.13
2019-02-02T04:14:35.088Z,52.17
2019-02-02T04:15:08.739Z,55.87
2019-02-02T04:15:39.948Z,52.40
2019-02-02T04:16:11.224Z,50.90
2019-02-02T04:16:42.513Z,49.97
2019-02-02T04:17:13.798Z,53.90
2019-02-02T04:17:45.083Z,47.03
2019-02-02T04:18:16.308Z,45.50
2019-02-02T04:18:47.529Z,47.00
2019-02-02T04:19:18.727Z,44.97
2019-02-02T04:19:49.870Z,44.67
2019-02-02T04:20:21.972Z,48.30
2019-02-02T04:20:53.130Z,43.63
2019-02-02T04:21:24.354Z,46.70
2019-02-02T04:21:55.502Z,48.47
2019-02-02T04:22:26.718Z,46.23
2019-02-02T04:22:57.891Z,47.77
2019-02-02T04:23:30.100Z,45.07
2019-02-02T04:24:01.764Z,43.00
2019-02-02T04:24:33.031Z,44.93
2019-02-02T04:25:06.102Z,45.60
2019-02-02T04:25:37.307Z,44.03
2019-02-02T04:26:08.465Z,45.93
2019-02-02T04:26:39.655Z,44.03
2019-02-02T04:27:10.857Z,49.90
2019-02-02T04:27:42.058Z,51.13
2019-02-02T04:28:13.224Z,48.50
2019-02-02T04:28:44.428Z,46.83
2019-02-02T04:29:17.765Z,54.67
2019-02-02T04:29:49.665Z,49.73
2019-02-02T04:30:24.031Z,54.13
2019-02-02T04:30:55.459Z,48.67
2019-02-02T04:31:26.631Z,52.47
2019-02-02T04:31:57.828Z,49.40
2019-02-02T04:32:28.980Z,46.27
2019-02-02T04:33:00.204Z,53.43
2019-02-02T04:33:31.356Z,48.93
2019-02-02T04:34:02.854Z,53.97
2019-02-02T04:34:34.030Z,51.83
2019-02-02T04:35:08.354Z,51.57
2019-02-02T04:35:39.606Z,50.23
2019-02-02T04:36:10.867Z,56.00
2019-02-02T04:36:42.048Z,57.37
2019-02-02T04:37:13.263Z,57.40
2019-02-02T04:37:44.425Z,52.57
2019-02-02T04:38:15.668Z,53.33
2019-02-02T04:38:46.885Z,53.93
2019-02-02T04:39:18.125Z,58.20
2019-02-02T04:39:49.319Z,57.50
2019-02-02T04:40:20.502Z,58.40
2019-02-02T04:40:51.685Z,60.00
2019-02-02T04:41:22.863Z,61.57
2019-02-02T04:41:54.025Z,62.87
2019-02-02T04:42:25.207Z,67.83
2019-02-02T04:42:56.376Z,69.70
2019-02-02T04:43:27.660Z,74.93
2019-02-02T04:43:58.826Z,77.50
2019-02-02T04:44:30.009Z,77.83
2019-02-02T04:45:01.175Z,81.80
2019-02-02T04:45:32.430Z,83.33
2019-02-02T04:46:03.641Z,78.13
2019-02-02T04:46:34.890Z,74.77
2019-02-02T04:47:06.081Z,68.63
2019-02-02T04:47:37.262Z,64.37
2019-02-02T04:48:08.452Z,61.77
2019-02-02T04:48:39.626Z,61.57
2019-02-02T04:49:10.804Z,54.80
2019-02-02T04:49:42.012Z,54.30
2019-02-02T04:50:16.980Z,57.23
2019-02-02T04:50:48.181Z,52.67
2019-02-02T04:51:19.339Z,50.87
2019-02-02T04:51:50.550Z,49.43
2019-02-02T04:52:21.704Z,51.30
2019-02-02T04:52:52.886Z,49.40
2019-02-02T04:53:24.049Z,50.53
2019-02-02T04:53:57.953Z,46.63
2019-02-02T04:54:28.307Z,47.73
2019-02-02T04:54:59.513Z,47.33
2019-02-02T04:55:30.679Z,50.43
2019-02-02T04:56:01.893Z,47.40
2019-02-02T04:56:33.039Z,48.27
2019-02-02T04:57:04.335Z,47.67
2019-02-02T04:57:35.481Z,52.80
2019-02-02T04:58:06.683Z,48.67
2019-02-02T04:58:37.845Z,45.83
2019-02-02T04:59:09.044Z,46.57
2019-02-02T04:59:40.220Z,48.23
2019-02-02T05:00:23.726Z,45.60
2019-02-02T05:00:54.868Z,47.67
2019-02-02T05:01:26.076Z,45.97
2019-02-02T05:01:57.235Z,43.57
2019-02-02T05:02:30.392Z,50.57
2019-02-02T05:03:01.490Z,51.80
2019-02-02T05:03:32.970Z,50.63
2019-02-02T05:04:04.192Z,51.47
2019-02-02T05:04:35.400Z,51.53
2019-02-02T05:05:11.180Z,50.60
2019-02-02T05:05:42.361Z,50.27
2019-02-02T05:06:13.566Z,56.53
2019-02-02T05:06:44.755Z,55.13
2019-02-02T05:07:16.005Z,53.20
2019-02-02T05:07:47.131Z,56.87
2019-02-02T05:08:18.324Z,52.80
2019-02-02T05:08:49.480Z,56.50
2019-02-02T05:09:20.687Z,49.17
2019-02-02T05:09:51.868Z,52.90
2019-02-02T05:10:23.499Z,51.03
2019-02-02T05:10:54.735Z,47.97
2019-02-02T05:11:25.988Z,49.60
2019-02-02T05:11:57.224Z,46.80
2019-02-02T05:12:28.454Z,50.87
2019-02-02T05:13:00.003Z,50.67
2019-02-02T05:13:31.239Z,49.13
2019-02-02T05:14:02.603Z,49.17
2019-02-02T05:14:33.869Z,49.27
2019-02-02T05:15:06.466Z,48.07
2019-02-02T05:15:37.615Z,49.00
2019-02-02T05:16:08.837Z,52.30
2019-02-02T05:16:39.978Z,52.43
2019-02-02T05:17:12.210Z,49.20
2019-02-02T05:17:43.354Z,50.40
2019-02-02T05:18:14.562Z,48.03
2019-02-02T05:18:45.714Z,50.00
2019-02-02T05:19:16.984Z,50.47
2019-02-02T05:19:48.117Z,51.37
2019-02-02T05:20:19.530Z,50.57
2019-02-02T05:20:50.685Z,49.50
2019-02-02T05:21:21.897Z,47.67
2019-02-02T05:21:53.034Z,49.43
2019-02-02T05:22:24.239Z,55.17
2019-02-02T05:22:55.401Z,51.67
2019-02-02T05:23:26.644Z,56.10
2019-02-02T05:23:57.803Z,50.27
2019-02-02T05:24:29.222Z,55.13
2019-02-02T05:25:00.399Z,51.40
2019-02-02T05:25:31.619Z,57.83
2019-02-02T05:26:03.056Z,54.80
2019-02-02T05:26:34.325Z,52.47
2019-02-02T05:27:05.607Z,54.67
2019-02-02T05:27:36.850Z,51.33
2019-02-02T05:28:08.125Z,49.37
2019-02-02T05:28:39.354Z,51.23
2019-02-02T05:29:10.577Z,50.30
2019-02-02T05:29:41.962Z,54.47
2019-02-02T05:30:28.847Z,54.40
2019-02-02T05:31:00.003Z,51.97
2019-02-02T05:31:31.203Z,56.13
2019-02-02T05:32:02.429Z,49.10
2019-02-02T05:32:33.636Z,51.00
2019-02-02T05:33:04.788Z,51.90
2019-02-02T05:33:36.002Z,53.83
2019-02-02T05:34:07.211Z,53.37
2019-02-02T05:34:38.490Z,55.47
2019-02-02T05:35:09.791Z,50.43
2019-02-02T05:35:41.035Z,51.77
2019-02-02T05:36:12.280Z,51.63
2019-02-02T05:36:43.577Z,55.80
2019-02-02T05:37:14.821Z,53.60
2019-02-02T05:37:46.036Z,48.33
2019-02-02T05:38:18.186Z,50.03
2019-02-02T05:38:49.387Z,48.63
2019-02-02T05:39:20.555Z,48.50
2019-02-02T05:39:51.765Z,44.73
2019-02-02T05:40:22.959Z,49.23
2019-02-02T05:40:54.267Z,50.23
2019-02-02T05:41:25.626Z,49.93
2019-02-02T05:41:56.818Z,48.87
2019-02-02T05:42:28.017Z,51.03
2019-02-02T05:42:59.337Z,53.27
2019-02-02T05:43:30.539Z,56.57
2019-02-02T05:44:01.726Z,53.87
2019-02-02T05:44:33.007Z,55.23
2019-02-02T05:45:07.696Z,58.00
2019-02-02T05:45:38.878Z,56.57
2019-02-02T05:46:10.057Z,53.67
2019-02-02T05:46:41.242Z,55.47
2019-02-02T05:47:12.474Z,54.93
2019-02-02T05:47:43.667Z,53.17
2019-02-02T05:48:14.859Z,48.20
2019-02-02T05:48:46.044Z,53.23
2019-02-02T05:49:17.225Z,53.30
2019-02-02T05:49:49.626Z,53.93
2019-02-02T05:50:22.219Z,51.70
2019-02-02T05:50:53.376Z,47.80
2019-02-02T05:51:24.631Z,53.60
2019-02-02T05:51:55.782Z,50.63
2019-02-02T05:52:26.979Z,54.60
2019-02-02T05:52:58.155Z,52.43
2019-02-02T05:53:29.389Z,54.47
2019-02-02T05:54:00.550Z,54.10
2019-02-02T05:54:31.741Z,48.23
2019-02-02T05:55:09.420Z,46.63
2019-02-02T05:55:40.625Z,48.63
2019-02-02T05:56:11.779Z,46.87
2019-02-02T05:56:42.967Z,47.80
2019-02-02T05:57:14.124Z,50.27
2019-02-02T05:57:45.334Z,50.00
2019-02-02T05:58:16.487Z,53.03
2019-02-02T05:58:47.699Z,54.53
2019-02-02T05:59:18.915Z,61.63
2019-02-02T05:59:52.813Z,58.33
2019-02-02T06:00:37.662Z,62.17
2019-02-02T06:01:10.772Z,56.03
2019-02-02T06:01:41.961Z,58.30
2019-02-02T06:02:13.140Z,55.80
2019-02-02T06:02:44.329Z,56.53
2019-02-02T06:03:15.495Z,56.07
2019-02-02T06:03:46.677Z,55.40
2019-02-02T06:04:17.936Z,52.77
2019-02-02T06:04:49.124Z,51.90
2019-02-02T06:05:20.305Z,51.20
2019-02-02T06:05:51.532Z,53.67
2019-02-02T06:06:22.756Z,53.00
2019-02-02T06:06:53.940Z,52.17
2019-02-02T06:07:25.096Z,55.03
2019-02-02T06:07:56.260Z,47.80
2019-02-02T06:08:27.414Z,53.73
2019-02-02T06:08:58.597Z,49.57
2019-02-02T06:09:29.740Z,52.50
2019-02-02T06:10:00.895Z,47.50
2019-02-02T06:10:32.337Z,46.00
2019-02-02T06:11:03.707Z,49.93
2019-02-02T06:11:34.865Z,51.07
2019-02-02T06:12:06.075Z,46.23
2019-02-02T06:12:37.225Z,46.70
2019-02-02T06:13:08.441Z,49.67
2019-02-02T06:13:39.597Z,49.50
2019-02-02T06:14:10.811Z,51.80
2019-02-02T06:14:42.066Z,45.87
2019-02-02T06:15:13.277Z,55.30
2019-02-02T06:15:44.486Z,61.47
2019-02-02T06:16:15.670Z,61.73
2019-02-02T06:16:46.856Z,66.03
2019-02-02T06:17:18.131Z,60.33
2019-02-02T06:17:49.363Z,64.40
2019-02-02T06:18:20.630Z,59.20
2019-02-02T06:18:51.880Z,64.90
2019-02-02T06:19:23.086Z,55.80
2019-02-02T06:19:54.342Z,62.53
2019-02-02T06:20:25.571Z,60.93
2019-02-02T06:20:56.775Z,60.03
2019-02-02T06:21:27.938Z,63.77
2019-02-02T06:21:59.350Z,55.93
2019-02-02T06:22:30.486Z,53.63
2019-02-02T06:23:01.684Z,53.13
2019-02-02T06:23:32.833Z,57.40
2019-02-02T06:24:04.042Z,56.50
2019-02-02T06:24:35.204Z,57.77
2019-02-02T06:25:10.121Z,56.23
2019-02-02T06:25:41.276Z,55.53
2019-02-02T06:26:12.487Z,56.20
2019-02-02T06:26:43.660Z,50.30
2019-02-02T06:27:14.848Z,52.13
2019-02-02T06:27:46.015Z,50.90
2019-02-02T06:28:17.225Z,52.23
2019-02-02T06:28:48.375Z,51.47
2019-02-02T06:29:19.607Z,51.13
2019-02-02T06:29:50.765Z,48.20
2019-02-02T06:30:24.076Z,49.70
2019-02-02T06:30:55.239Z,51.07
2019-02-02T06:31:26.421Z,52.07
2019-02-02T06:31:57.583Z,50.13
2019-02-02T06:32:28.783Z,55.00
2019-02-02T06:32:59.952Z,57.33
2019-02-02T06:33:31.147Z,54.90
2019-02-02T06:34:02.467Z,60.33
2019-02-02T06:34:33.780Z,62.17
2019-02-02T06:35:08.884Z,56.67
2019-02-02T06:35:40.143Z,75.13
2019-02-02T06:36:11.310Z,56.93
2019-02-02T06:36:42.562Z,59.03
2019-02-02T06:37:13.747Z,62.43
2019-02-02T06:37:44.984Z,62.20
2019-02-02T06:38:16.130Z,63.33
2019-02-02T06:38:47.344Z,58.43
2019-02-02T06:39:18.506Z,52.07
2019-02-02T06:39:49.726Z,53.67
2019-02-02T06:40:20.928Z,50.13
2019-02-02T06:40:52.136Z,54.67
2019-02-02T06:41:23.318Z,48.67
2019-02-02T06:41:54.499Z,55.37
2019-02-02T06:42:25.773Z,55.33
2019-02-02T06:42:56.982Z,56.40
2019-02-02T06:43:30.213Z,55.20
2019-02-02T06:44:01.299Z,54.33
2019-02-02T06:44:32.495Z,53.40
2019-02-02T06:45:11.974Z,49.73
2019-02-02T06:45:43.175Z,51.43
2019-02-02T06:46:14.394Z,50.93
2019-02-02T06:46:45.553Z,46.80